METAR Data
IDs: Format: Raw Decoded Include TAF

Data at: 2120 UTC 18 Sep 2018

KF17 182115Z AUTO 03003KT 10SM SCT075 34/21 A2992 RMK AO2 T03400210
KF17 182055Z AUTO 00000KT 10SM CLR 34/21 A2992 RMK AO2 T03400213
KF17 182035Z AUTO 00000KT 10SM CLR 34/22 A2993 RMK AO2 T03390215
KF17 182015Z AUTO 00000KT 10SM CLR 34/21 A2993 RMK AO2 T03350211
KF17 181955Z AUTO 00000KT 10SM CLR 34/20 A2993 RMK AO2 T03370204
KF17 181935Z AUTO 00000KT 10SM CLR 34/22 A2994 RMK AO2 T03350215
KF17 181915Z AUTO 00000KT 10SM SCT047 33/22 A2994 RMK AO2 T03340217
KF17 181855Z AUTO 00000KT 10SM CLR 33/21 A2996 RMK AO2 T03290213
KF17 181835Z AUTO 00000KT 10SM CLR 33/21 A2997 RMK AO2 T03300214
KF17 181815Z AUTO 00000KT 10SM CLR 33/21 A2998 RMK AO2 T03280211
KF17 181755Z AUTO 00000KT 10SM CLR 33/21 A2999 RMK AO2 T03260211 10326 20225
KF17 181735Z AUTO 00000KT 10SM CLR 32/22 A3000 RMK AO2 T03240216
KF17 181715Z AUTO 00000KT 10SM CLR 32/21 A3000 RMK AO2 T03200211
KF17 181655Z AUTO 20003KT 10SM CLR 32/22 A3001 RMK AO2 T03180224
KF17 181635Z AUTO 00000KT 10SM CLR 32/23 A3002 RMK AO2 T03150226
KF17 181615Z AUTO 00000KT 10SM CLR 31/22 A3002 RMK AO2 T03130224
KF17 181555Z AUTO 00000KT 10SM CLR 30/23 A3002 RMK AO2 T03040229
KF17 181535Z AUTO 00000KT 10SM CLR 30/23 A3002 RMK AO2 T03020232
KF17 181515Z AUTO 00000KT 10SM CLR 30/23 A3002 RMK AO2 T02970232
KF17 181455Z AUTO 00000KT 10SM CLR 29/23 A3002 RMK AO2 T02910231
KF17 181435Z AUTO 00000KT 10SM CLR 28/24 A3002 RMK AO2 T02820240
KF17 181415Z AUTO 33003KT 10SM CLR 27/24 A3002 RMK AO2 T02740241
KF17 181355Z AUTO 00000KT 10SM CLR 26/25 A3002 RMK AO2 T02640247
KF17 181335Z AUTO 00000KT 10SM CLR 25/25 A3002 RMK AO2 T02530246
KF17 181315Z AUTO 00000KT 7SM CLR 24/24 A3002 RMK AO2 T02420235
KF17 181255Z AUTO 00000KT 7SM CLR 24/23 A3002 RMK AO2 T02350227
KF17 181235Z AUTO 00000KT 4SM BR CLR 23/22 A3001 RMK AO2 T02280220
KF17 181215Z AUTO 00000KT 5SM BR CLR 23/22 A3001 RMK AO2 T02250218
KF17 181155Z AUTO 00000KT 7SM CLR 23/22 A3000 RMK AO2 70007 T02270220 10242 20227
KF17 181135Z AUTO 00000KT 5SM BR CLR 23/22 A3000 RMK AO2 T02270220
KF17 181115Z AUTO 00000KT 7SM CLR 23/22 A2999 RMK AO2 T02290221
KF17 181055Z AUTO 00000KT 7SM CLR 23/22 A2999 RMK AO2 T02270220
KF17 181035Z AUTO 00000KT 4SM BR CLR 23/22 A2999 RMK AO2 T02280220
KF17 181015Z AUTO 00000KT 7SM CLR 23/22 A2998 RMK AO2 T02300221
KF17 180955Z AUTO 00000KT 5SM BR CLR 23/22 A2998 RMK AO2 T02310223
KF17 180935Z AUTO 00000KT 5SM BR CLR 23/22 A2998 RMK AO2 T02300222
KF17 180915Z AUTO 00000KT 5SM BR CLR 23/22 A2997 RMK AO2 T02310223
KF17 180855Z AUTO 00000KT 7SM CLR 24/23 A2997 RMK AO2 T02350227
KF17 180835Z AUTO 00000KT 5SM BR CLR 24/23 A2997 RMK AO2 T02350226
KF17 180815Z AUTO 00000KT 7SM CLR 24/23 A2997 RMK AO2 T02370229
KF17 180755Z AUTO 00000KT 7SM CLR 24/23 A2997 RMK AO2 T02350227
KF17 180735Z AUTO 00000KT 5SM BR CLR 24/23 A2998 RMK AO2 T02370230
KF17 180715Z AUTO 00000KT 5SM BR CLR 24/23 A2998 RMK AO2 T02370229
KF17 180655Z AUTO 00000KT 7SM CLR 24/23 A2998 RMK AO2 T02390230
KF17 180635Z AUTO 00000KT 7SM CLR 24/23 A2998 RMK AO2 T02400231
KF17 180615Z AUTO 00000KT 7SM CLR 24/23 A2998 RMK AO2 T02410234
KF17 180555Z AUTO 00000KT 7SM CLR 24/24 A2998 RMK AO2 T02420235 10284 20242 403370220
KF17 180535Z AUTO 00000KT 7SM CLR 24/24 A2998 RMK AO2 T02430235
KF17 180515Z AUTO 00000KT 7SM CLR 25/24 A2998 RMK AO2 T02450236
KF17 180455Z AUTO 00000KT 7SM CLR 25/24 A2999 RMK AO2 T02450237
KF17 180435Z AUTO 00000KT 7SM CLR 25/24 A2998 RMK AO2 T02460238
KF17 180415Z AUTO 00000KT 7SM CLR 25/24 A2998 RMK AO2 T02460239
KF17 180355Z AUTO 00000KT 7SM CLR 25/24 A2998 RMK AO2 T02470240
KF17 180335Z AUTO 00000KT 7SM CLR 25/24 A2998 RMK AO2 T02490240
KF17 180315Z AUTO 00000KT 7SM CLR 25/24 A2998 RMK AO2 T02510243
KF17 180255Z AUTO 00000KT 7SM CLR 25/24 A2997 RMK AO2 T02510243
KF17 180235Z AUTO 00000KT 7SM CLR 25/25 A2997 RMK AO2 T02520245
KF17 180215Z AUTO 00000KT 7SM CLR 26/25 A2996 RMK AO2 T02550246
KF17 180155Z AUTO 00000KT 10SM CLR 26/25 A2995 RMK AO2 T02570249
KF17 180135Z AUTO 00000KT 10SM CLR 26/25 A2994 RMK AO2 T02580251
KF17 180115Z AUTO 00000KT 10SM CLR 26/26 A2993 RMK AO2 T02620255
KF17 180055Z AUTO 00000KT 10SM CLR 27/26 A2993 RMK AO2 T02650257
KF17 180035Z AUTO 01006KT 10SM CLR 27/26 A2992 RMK AO2 T02700262
KF17 180015Z AUTO 00000KT 10SM CLR 28/27 A2992 RMK AO2 T02760266
KF17 172355Z AUTO 00000KT 10SM CLR 29/27 A2992 RMK AO2 60007 T02850272 10337 20267
KF17 172335Z AUTO 00000KT 10SM CLR 30/26 A2992 RMK AO2 T02980260
KF17 172315Z AUTO 00000KT 10SM CLR 31/24 A2992 RMK AO2 T03120244
KF17 172255Z AUTO 00000KT 10SM CLR 31/24 A2992 RMK AO2 T03130240
KF17 172235Z AUTO 00000KT 10SM CLR 31/24 A2992 RMK AO2 T03080244
KF17 172215Z AUTO 00000KT 10SM CLR 30/25 A2993 RMK AO2 T02970253
KF17 172155Z AUTO 00000KT 10SM SCT047 29/23 A2993 RMK AO2 P0007 T02900230
KF17 172135Z AUTO 15012G25KT 3SM -RA SCT004 SCT013 BKN055 27/22 A2993 RMK AO2 P0007 T02670220
KF17 172115Z AUTO 00000KT 10SM SCT050 SCT060 SCT090 32/23 A2993 RMK AO2 T03180225
KF17 172055Z AUTO 22003KT 10SM BKN050 BKN090 32/22 A2994 RMK AO2 T03220217
KF17 172035Z AUTO 00000KT 10SM SCT055 34/20 A2993 RMK AO2 T03350203
KF17 172015Z AUTO 00000KT 10SM CLR 33/20 A2993 RMK AO2 T03340201
KF17 171955Z AUTO 18003KT 10SM CLR 33/22 A2994 RMK AO2 T03300217
KF17 171935Z AUTO 19003KT 10SM CLR 33/22 A2995 RMK AO2 T03290217
KF17 171915Z AUTO 00000KT 10SM CLR 33/21 A2996 RMK AO2 T03300211
KF17 171855Z AUTO 00000KT 10SM CLR 32/20 A2997 RMK AO2 T03190200
KF17 171835Z AUTO 00000KT 10SM CLR 33/21 A2998 RMK AO2 T03250214
KF17 171815Z AUTO 28003KT 10SM CLR 32/21 A2998 RMK AO2 T03180211
KF17 171755Z AUTO 00000KT 10SM SCT048 32/21 A2999 RMK AO2 T03200208 10321 20220
KF17 171735Z AUTO 00000KT 10SM SCT050 32/21 A3000 RMK AO2 T03210211
KF17 171715Z AUTO 00000KT 10SM CLR 32/22 A3000 RMK AO2 T03190219
KF17 171655Z AUTO 00000KT 10SM CLR 32/22 A3001 RMK AO2 T03180218
KF17 171635Z AUTO 00000KT 10SM CLR 31/21 A3001 RMK AO2 T03130213
KF17 171615Z AUTO 00000KT 10SM CLR 31/22 A3002 RMK AO2 T03070221
KF17 171555Z AUTO 00000KT 10SM CLR 30/22 A3002 RMK AO2 T03000223
KF17 171535Z AUTO 00000KT 10SM CLR 30/22 A3002 RMK AO2 T02950220
KF17 171515Z AUTO 00000KT 10SM CLR 29/22 A3001 RMK AO2 T02910222
KF17 171455Z AUTO 00000KT 10SM CLR 28/23 A3001 RMK AO2 T02800225
KF17 171435Z AUTO 00000KT 10SM CLR 28/23 A3001 RMK AO2 T02760227
KF17 171415Z AUTO 00000KT 10SM CLR 27/23 A3000 RMK AO2 T02690227
KF17 171355Z AUTO 00000KT 10SM CLR 26/23 A3000 RMK AO2 T02600231
KF17 171335Z AUTO 00000KT 10SM CLR 25/23 A2999 RMK AO2 T02500233
KF17 171315Z AUTO 00000KT 10SM CLR 24/23 A2998 RMK AO2 T02390231
KF17 171255Z AUTO 00000KT 7SM CLR 23/22 A2998 RMK AO2 T02310223
KF17 171235Z AUTO 00000KT 5SM BR CLR 22/22 A2997 RMK AO2 T02230215
KF17 171215Z AUTO 00000KT 5SM BR CLR 22/21 A2997 RMK AO2 T02200212
KF17 171155Z AUTO 00000KT 5SM BR CLR 22/21 A2996 RMK AO2 T02200212 10235 20220
KF17 171135Z AUTO 00000KT 7SM CLR 22/21 A2995 RMK AO2 T02210213
KF17 171115Z AUTO 00000KT 7SM CLR 22/22 A2995 RMK AO2 T02220215
KF17 171055Z AUTO 00000KT 10SM CLR 22/22 A2994 RMK AO2 T02240216
KF17 171035Z AUTO 00000KT 10SM CLR 22/22 A2994 RMK AO2 T02240215
KF17 171015Z AUTO 00000KT 7SM CLR 22/22 A2994 RMK AO2 T02240216
KF17 170955Z AUTO 00000KT 7SM CLR 22/22 A2994 RMK AO2 T02230215
KF17 170935Z AUTO 00000KT 7SM CLR 23/22 A2994 RMK AO2 T02250216